Time;durP1;ratioP1;P1;durP2;ratioP2;P2;SDS_P1;SDS_P2;PMS_P1;PMS_P2;Temp;Humidity;BMP_temperature;BMP_pressure;BME280_temperature;BME280_humidity;BME280_pressure;Samples;Min_cycle;Max_cycle;Signal;HPM_P1;HPM_P2
2020/12/22 00:01:04;;;;;;;14.20;10.95;;;;;;;2.99;76.93;101290.75;5084624;28;20035;-53
2020/12/22 00:03:30;;;;;;;15.07;11.05;;;;;;;2.87;77.73;101292.88;5065593;28;20021;-53
2020/12/22 00:05:56;;;;;;;13.05;9.88;;;;;;;2.97;77.86;101288.97;5064975;28;20040;-54
2020/12/22 00:08:21;;;;;;;15.00;11.65;;;;;;;2.81;77.90;101273.06;5076820;28;20047;-55
2020/12/22 00:10:47;;;;;;;13.80;10.70;;;;;;;2.84;77.91;101278.28;5084662;28;20021;-54
2020/12/22 00:13:12;;;;;;;13.77;11.05;;;;;;;2.98;77.55;101275.34;5084505;28;20016;-54
2020/12/22 00:15:38;;;;;;;14.68;10.35;;;;;;;3.01;77.40;101273.78;5084676;28;20305;-54
2020/12/22 00:18:04;;;;;;;13.30;10.05;;;;;;;2.97;77.67;101276.19;5084339;28;20035;-54
2020/12/22 00:20:30;;;;;;;15.95;11.50;;;;;;;2.95;77.86;101283.81;5084408;28;20021;-53
2020/12/22 00:22:56;;;;;;;14.05;11.05;;;;;;;2.83;78.12;101268.84;5084281;28;20095;-53
2020/12/22 00:25:21;;;;;;;16.35;10.38;;;;;;;2.94;77.86;101277.78;5084523;28;20028;-54
2020/12/22 00:27:47;;;;;;;12.82;10.45;;;;;;;3.12;77.19;101271.56;5083911;28;20035;-53
2020/12/22 00:30:12;;;;;;;14.38;10.27;;;;;;;2.75;78.22;101266.03;5084172;28;20306;-53
2020/12/22 00:32:38;;;;;;;12.15;9.63;;;;;;;2.63;79.04;101259.63;5084217;28;20229;-53
2020/12/22 00:35:04;;;;;;;16.33;10.25;;;;;;;2.68;78.76;101265.75;5084126;28;20025;-53
2020/12/22 00:37:30;;;;;;;11.70;9.57;;;;;;;2.72;78.63;101263.38;5084236;28;20043;-53
2020/12/22 00:39:56;;;;;;;12.52;10.00;;;;;;;2.79;78.29;101261.88;5083946;28;20036;-53
2020/12/22 00:42:21;;;;;;;15.15;11.10;;;;;;;2.61;79.16;101254.44;5084150;28;20036;-54
2020/12/22 00:44:47;;;;;;;12.00;9.23;;;;;;;2.73;78.74;101264.22;5083754;28;20040;-54
2020/12/22 00:47:12;;;;;;;12.27;9.45;;;;;;;2.71;78.55;101258.22;5083656;28;20276;-54
2020/12/22 00:49:38;;;;;;;15.18;10.48;;;;;;;2.73;78.56;101259.13;5083807;28;20344;-54
2020/12/22 00:52:03;;;;;;;12.13;9.77;;;;;;;2.89;78.04;101258.88;5083731;28;20091;-54
2020/12/22 00:54:29;;;;;;;12.18;9.10;;;;;;;2.94;77.86;101256.47;5083840;28;20029;-54
2020/12/22 00:56:56;;;;;;;10.98;8.85;;;;;;;2.87;77.73;101263.03;5083637;28;20293;-53
2020/12/22 00:59:22;;;;;;;11.98;9.05;;;;;;;2.92;78.16;101252.97;5083605;28;20024;-53
2020/12/22 01:01:47;;;;;;;10.40;8.48;;;;;;;2.91;78.02;101254.66;5083515;28;20097;-53
2020/12/22 01:04:13;;;;;;;11.88;8.30;;;;;;;2.86;77.87;101257.88;5083552;28;20020;-53
2020/12/22 01:06:39;;;;;;;13.52;9.10;;;;;;;2.69;78.30;101253.00;5083479;28;20031;-53
2020/12/22 01:09:06;;;;;;;9.30;8.27;;;;;;;2.82;77.77;101263.69;5083314;28;20513;-53
2020/12/22 01:11:36;;;;;;;11.13;8.63;;;;;;;2.91;77.71;101254.66;5083699;28;20028;-53
2020/12/22 01:14:02;;;;;;;11.07;8.95;;;;;;;2.94;77.18;101253.91;5083366;28;20046;-53
2020/12/22 01:16:28;;;;;;;11.20;8.35;;;;;;;3.03;77.64;101261.88;5083174;28;20035;-53
2020/12/22 01:18:54;;;;;;;13.43;9.10;;;;;;;2.94;78.06;101259.03;5083108;28;20047;-53
2020/12/22 01:21:20;;;;;;;10.80;9.20;;;;;;;2.88;78.19;101257.13;5083343;28;20028;-53
2020/12/22 01:23:47;;;;;;;10.52;8.82;;;;;;;3.03;77.16;101261.03;5083145;28;20028;-53
2020/12/22 01:26:21;;;;;;;11.80;8.52;;;;;;;2.90;77.84;101249.50;5083013;28;20028;-53
2020/12/22 01:28:46;;;;;;;12.35;9.50;;;;;;;2.92;77.70;101243.63;5082929;28;20035;-54
2020/12/22 01:31:20;;;;;;;14.88;9.02;;;;;;;2.98;78.03;101259.97;5082963;28;20035;-53
2020/12/22 01:33:45;;;;;;;11.95;9.52;;;;;;;2.84;78.36;101255.25;5082873;28;20063;-53
2020/12/22 01:36:11;;;;;;;13.05;9.70;;;;;;;2.97;77.67;101245.47;5082926;28;20073;-54
2020/12/22 01:38:37;;;;;;;12.98;9.55;;;;;;;3.04;77.53;101244.88;5082726;28;20028;-53
2020/12/22 01:41:02;;;;;;;13.88;10.15;;;;;;;2.79;78.60;101248.25;5082927;28;20025;-53
2020/12/22 01:43:28;;;;;;;13.48;9.90;;;;;;;2.89;78.75;101247.75;5082852;28;20024;-53
2020/12/22 01:45:53;;;;;;;14.80;10.43;;;;;;;2.91;78.88;101256.38;5082715;28;20040;-53
2020/12/22 01:48:21;;;;;;;15.25;11.35;;;;;;;2.86;79.15;101250.19;5082613;28;20032;-53
2020/12/22 01:50:47;;;;;;;14.80;10.88;;;;;;;2.85;78.80;101245.88;5082736;28;20260;-52
2020/12/22 01:53:12;;;;;;;15.23;11.02;;;;;;;2.80;79.17;101234.63;5082671;28;20020;-54
2020/12/22 01:55:42;;;;;;;16.30;11.23;;;;;;;2.91;78.64;101236.75;5081646;28;20028;-54
2020/12/22 01:58:08;;;;;;;14.63;10.88;;;;;;;2.89;79.06;101232.38;5082378;28;20032;-54
2020/12/22 02:00:34;;;;;;;15.27;11.20;;;;;;;2.93;78.72;101227.44;5082775;28;20024;-53
2020/12/22 02:03:00;;;;;;;16.58;11.85;;;;;;;2.88;78.86;101216.19;5082340;28;20035;-53
2020/12/22 02:05:25;;;;;;;16.63;11.55;;;;;;;2.77;78.86;101220.03;5082621;28;20033;-53
2020/12/22 02:07:51;;;;;;;15.32;11.48;;;;;;;2.97;78.06;101220.75;5082370;28;20336;-53
2020/12/22 02:10:16;;;;;;;14.70;11.77;;;;;;;2.87;78.81;101216.13;5081516;28;20198;-53
2020/12/22 02:12:42;;;;;;;13.68;9.95;;;;;;;2.92;78.24;101197.56;5082514;28;20024;-53
2020/12/22 02:15:08;;;;;;;17.95;11.75;;;;;;;3.04;78.54;101209.91;5082457;28;20028;-53
2020/12/22 02:17:35;;;;;;;16.63;11.80;;;;;;;3.00;78.98;101207.19;5082360;28;20077;-53
2020/12/22 02:20:01;;;;;;;16.77;11.07;;;;;;;2.74;79.34;101204.59;5082358;28;20031;-53
2020/12/22 02:22:27;;;;;;;20.92;13.15;;;;;;;2.72;79.55;101211.31;5082303;28;20336;-53
2020/12/22 02:24:53;;;;;;;17.02;12.20;;;;;;;2.87;79.58;101204.19;5082365;28;20052;-53
2020/12/22 02:27:18;;;;;;;19.92;12.98;;;;;;;2.70;79.33;101203.59;5083441;28;20089;-53
2020/12/22 02:29:44;;;;;;;19.17;13.32;;;;;;;2.78;79.62;101200.44;5086625;28;20024;-54
2020/12/22 02:32:09;;;;;;;17.75;12.25;;;;;;;2.70;79.71;101212.97;5086378;28;20036;-53
2020/12/22 02:34:35;;;;;;;18.63;12.48;;;;;;;2.78;79.04;101197.88;5086485;28;20130;-53
2020/12/22 02:37:00;;;;;;;17.67;12.35;;;;;;;2.79;79.21;101205.59;5086516;28;20095;-54
2020/12/22 02:39:26;;;;;;;17.52;12.40;;;;;;;2.80;79.12;101201.38;5086308;28;20322;-54
2020/12/22 02:41:51;;;;;;;18.50;12.10;;;;;;;2.82;78.98;101210.84;5086359;28;20024;-53
2020/12/22 02:44:17;;;;;;;19.35;13.38;;;;;;;2.85;79.03;101210.97;5086206;28;20060;-53
2020/12/22 02:46:43;;;;;;;19.48;13.73;;;;;;;2.80;79.27;101202.25;5086142;28;20087;-54
2020/12/22 02:49:08;;;;;;;16.52;12.15;;;;;;;2.66;79.88;101203.44;5084522;28;20353;-54
2020/12/22 02:51:34;;;;;;;17.15;13.20;;;;;;;2.83;78.94;101209.16;5086107;28;20032;-55
2020/12/22 02:53:59;;;;;;;19.90;12.75;;;;;;;2.70;79.49;101200.19;5086000;28;20020;-54
2020/12/22 02:56:25;;;;;;;20.02;13.38;;;;;;;2.58;79.31;101190.41;5086019;28;20036;-54
2020/12/22 02:58:51;;;;;;;17.83;12.43;;;;;;;2.80;79.73;101204.81;5085778;28;20020;-54
2020/12/22 03:01:18;;;;;;;19.77;12.65;;;;;;;2.57;80.19;101198.88;5084764;28;20194;-54
2020/12/22 03:03:44;;;;;;;19.40;13.75;;;;;;;2.66;79.96;101206.88;5085976;28;20043;-54
2020/12/22 03:06:10;;;;;;;20.52;13.45;;;;;;;2.75;79.54;101193.53;5085728;28;20028;-54
2020/12/22 03:08:36;;;;;;;19.95;13.40;;;;;;;2.74;79.72;101199.47;5085701;28;20229;-54
2020/12/22 03:11:01;;;;;;;17.05;12.57;;;;;;;2.84;79.18;101196.41;5085726;28;20077;-54
2020/12/22 03:13:27;;;;;;;20.38;13.75;;;;;;;2.89;79.17;101191.44;5085816;28;20033;-54
2020/12/22 03:15:53;;;;;;;19.88;13.85;;;;;;;2.87;78.57;101200.78;5085647;28;20027;-54
2020/12/22 03:18:19;;;;;;;19.02;13.75;;;;;;;2.76;79.04;101187.59;5085516;28;20353;-54
2020/12/22 03:20:45;;;;;;;21.08;14.65;;;;;;;2.76;78.69;101200.41;5085622;28;20069;-54
2020/12/22 03:23:11;;;;;;;21.83;15.07;;;;;;;2.51;80.21;101186.75;5085479;28;20078;-54
2020/12/22 03:25:37;;;;;;;21.75;13.82;;;;;;;2.61;79.49;101203.28;5085373;28;20029;-54
2020/12/22 03:28:03;;;;;;;22.83;14.07;;;;;;;2.70;79.92;101211.28;5084956;28;20217;-54
2020/12/22 03:30:28;;;;;;;24.27;15.48;;;;;;;2.52;79.81;101205.50;5085332;28;20035;-54
2020/12/22 03:32:54;;;;;;;20.45;14.23;;;;;;;2.72;79.56;101193.41;5085318;28;20329;-54
2020/12/22 03:35:20;;;;;;;22.52;14.70;;;;;;;2.73;79.31;101203.72;5085320;28;20306;-54
2020/12/22 03:37:45;;;;;;;22.65;14.75;;;;;;;2.69;79.33;101198.44;5085375;28;20052;-55
2020/12/22 03:40:14;;;;;;;23.10;14.90;;;;;;;2.55;79.68;101201.38;5085238;28;20134;-55
2020/12/22 03:42:40;;;;;;;23.63;15.02;;;;;;;2.46;80.11;101190.81;5085196;28;20092;-54
2020/12/22 03:45:07;;;;;;;21.15;14.10;;;;;;;2.69;79.85;101218.91;5084845;28;20044;-53
2020/12/22 03:47:33;;;;;;;21.27;14.13;;;;;;;2.56;79.81;101205.66;5084979;28;20032;-54
2020/12/22 03:49:59;;;;;;;25.13;16.10;;;;;;;2.69;79.19;101206.97;5084834;28;20213;-54
2020/12/22 03:52:25;;;;;;;23.95;14.68;;;;;;;2.62;79.78;101205.00;5085020;28;20036;-54
2020/12/22 03:54:50;;;;;;;22.30;15.45;;;;;;;2.61;79.42;101204.97;5084816;28;20055;-55
2020/12/22 03:57:17;;;;;;;26.35;15.93;;;;;;;2.64;79.33;101207.66;5084808;28;20060;-54
2020/12/22 03:59:44;;;;;;;22.30;15.00;;;;;;;2.70;79.48;101203.59;5084801;28;20195;-54
2020/12/22 04:02:09;;;;;;;22.73;15.05;;;;;;;2.36;80.15;101192.16;5084441;28;20091;-54
2020/12/22 04:04:35;;;;;;;24.27;15.73;;;;;;;2.44;80.53;101201.78;5084813;28;20202;-54
2020/12/22 04:07:01;;;;;;;27.50;17.58;;;;;;;2.55;80.03;101203.94;5084590;28;20036;-54
2020/12/22 04:09:27;;;;;;;36.45;19.73;;;;;;;2.16;80.75;101204.22;5084378;28;20302;-54
2020/12/22 04:11:52;;;;;;;35.00;20.50;;;;;;;1.95;81.93;101200.84;5084620;28;20078;-54
2020/12/22 04:14:19;;;;;;;37.50;20.35;;;;;;;2.00;81.94;101214.69;5084533;28;20040;-54
2020/12/22 04:16:46;;;;;;;39.80;20.75;;;;;;;1.76;82.93;101197.56;5084409;28;20064;-53
2020/12/22 04:19:11;;;;;;;39.15;21.55;;;;;;;2.05;82.26;101203.81;5084402;28;20024;-54
2020/12/22 04:21:37;;;;;;;33.38;19.70;;;;;;;2.19;81.78;101195.78;5084336;28;20116;-54
2020/12/22 04:24:04;;;;;;;39.15;21.98;;;;;;;2.23;81.17;101203.63;5084401;28;20027;-53
2020/12/22 04:26:30;;;;;;;39.42;21.77;;;;;;;2.20;80.86;101190.72;5083127;28;20047;-54
2020/12/22 04:28:56;;;;;;;39.03;21.52;;;;;;;1.70;82.70;101200.75;5083725;28;20039;-54
2020/12/22 04:31:21;;;;;;;34.85;19.70;;;;;;;1.84;82.62;101193.66;5084139;28;20091;-54
2020/12/22 04:33:49;;;;;;;36.60;21.23;;;;;;;1.86;81.80;101203.91;5084049;28;20043;-54
2020/12/22 04:36:15;;;;;;;40.17;22.65;;;;;;;2.04;81.50;101191.84;5075725;28;20036;-54
2020/12/22 04:38:41;;;;;;;40.63;22.27;;;;;;;2.24;81.03;101190.03;5083750;28;20020;-54
2020/12/22 04:41:11;;;;;;;39.13;21.95;;;;;;;1.62;81.09;101145.09;5083523;28;20024;-54
2020/12/22 04:43:39;;;;;;;37.92;21.08;;;;;;;1.73;81.84;101180.44;5083923;28;20051;-53
2020/12/22 04:46:05;;;;;;;36.60;20.98;;;;;;;1.92;81.52;101190.50;5083402;28;20119;-54
2020/12/22 04:48:38;;;;;;;33.30;20.08;;;;;;;1.78;81.05;101180.66;5083761;28;20127;-54
2020/12/22 04:51:10;;;;;;;35.63;20.52;;;;;;;2.01;81.09;101181.53;5083154;28;20028;-54
2020/12/22 04:53:37;;;;;;;32.95;20.40;;;;;;;1.98;81.00;101177.97;5083709;28;20043;-54
2020/12/22 04:56:09;;;;;;;33.80;20.52;;;;;;;1.66;80.90;101187.81;5083581;28;20036;-54
2020/12/22 04:58:35;;;;;;;36.63;21.25;;;;;;;1.74;81.22;101181.34;5083587;28;20115;-54
2020/12/22 05:01:01;;;;;;;36.78;20.80;;;;;;;1.73;81.75;101185.56;5083443;28;20036;-54
2020/12/22 05:03:27;;;;;;;35.40;20.73;;;;;;;1.78;81.06;101190.88;5083566;28;20087;-53
2020/12/22 05:05:53;;;;;;;34.20;20.48;;;;;;;1.78;81.03;101189.97;5083414;28;20043;-54
2020/12/22 05:08:20;;;;;;;33.80;21.77;;;;;;;1.68;81.15;101176.88;5083519;28;20305;-54
2020/12/22 05:10:46;;;;;;;33.60;20.10;;;;;;;1.86;80.75;101181.78;5083274;28;20032;-54
2020/12/22 05:13:14;;;;;;;33.00;19.48;;;;;;;1.72;80.63;101177.84;5083171;28;20073;-54
2020/12/22 05:15:44;;;;;;;31.88;20.20;;;;;;;1.83;80.58;101178.25;5083257;28;20029;-54
2020/12/22 05:18:10;;;;;;;31.65;19.70;;;;;;;1.96;80.14;101174.50;5083105;28;20044;-54
2020/12/22 05:20:40;;;;;;;30.50;19.52;;;;;;;1.92;79.41;101180.28;5083014;28;20032;-54
2020/12/22 05:23:08;;;;;;;29.58;18.48;;;;;;;1.55;79.82;101197.59;5082996;28;20325;-54
2020/12/22 05:25:36;;;;;;;29.88;18.35;;;;;;;0.96;81.27;101133.16;5082873;28;20020;-54
2020/12/22 05:28:02;;;;;;;30.60;19.58;;;;;;;1.34;81.40;101192.50;5082119;28;20301;-55
2020/12/22 05:30:27;;;;;;;25.70;16.90;;;;;;;1.40;80.69;101196.97;5082900;28;20048;-54
2020/12/22 05:32:53;;;;;;;29.95;17.63;;;;;;;1.02;81.19;101176.75;5082853;28;20044;-55
2020/12/22 05:35:19;;;;;;;26.88;18.13;;;;;;;1.19;81.46;101185.97;5066415;28;20103;-55
2020/12/22 05:37:50;;;;;;;28.15;17.35;;;;;;;1.24;80.84;101193.81;5065565;28;20037;-55
2020/12/22 05:40:16;;;;;;;27.40;17.73;;;;;;;1.42;80.56;101192.81;5074766;28;20027;-55
2020/12/22 05:42:42;;;;;;;23.80;16.42;;;;;;;1.33;79.85;101191.63;5082601;28;20028;-55
2020/12/22 05:45:08;;;;;;;25.23;16.42;;;;;;;1.37;79.73;101192.66;5082372;28;20215;-55
2020/12/22 05:47:35;;;;;;;25.58;16.63;;;;;;;1.29;80.03;101197.41;5069253;28;20058;-54
2020/12/22 05:50:02;;;;;;;24.95;16.83;;;;;;;1.45;79.84;101196.34;5082309;28;20301;-54
2020/12/22 05:52:30;;;;;;;24.70;17.10;;;;;;;1.08;79.08;101133.63;5082081;28;20035;-54
2020/12/22 05:54:57;;;;;;;23.95;15.38;;;;;;;1.32;79.24;101196.69;5073148;28;20040;-54
2020/12/22 05:57:28;;;;;;;26.23;16.83;;;;;;;0.96;79.88;101141.66;5062621;28;20053;-54
2020/12/22 05:59:55;;;;;;;23.90;16.88;;;;;;;1.24;79.93;101188.72;5079722;28;20028;-55
2020/12/22 06:02:24;;;;;;;21.48;15.48;;;;;;;1.27;79.26;101186.28;5081539;28;20372;-55
2020/12/22 06:04:55;;;;;;;21.05;14.32;;;;;;;1.15;79.43;101196.84;5081210;28;20099;-54
2020/12/22 06:07:21;;;;;;;21.83;14.70;;;;;;;1.22;79.35;101194.56;5082438;28;20095;-54
2020/12/22 06:09:48;;;;;;;22.23;15.20;;;;;;;1.16;78.92;101192.63;5082376;28;20028;-54
2020/12/22 06:12:14;;;;;;;21.20;14.43;;;;;;;1.17;78.97;101191.84;5082322;28;20040;-54
2020/12/22 06:14:44;;;;;;;22.13;14.50;;;;;;;1.10;79.32;101193.25;5082484;28;20021;-55
2020/12/22 06:17:11;;;;;;;21.00;14.68;;;;;;;0.82;79.29;101128.31;5082472;28;20083;-54
2020/12/22 06:19:38;;;;;;;20.27;15.25;;;;;;;0.92;79.60;101189.94;5082188;28;20021;-54
2020/12/22 06:22:03;;;;;;;20.60;14.57;;;;;;;0.97;79.47;101198.63;5082124;28;20066;-53
2020/12/22 06:24:33;;;;;;;21.83;14.63;;;;;;;0.92;79.68;101201.00;5082419;28;20052;-54
2020/12/22 06:27:04;;;;;;;21.65;15.02;;;;;;;0.52;79.74;101154.25;5082174;28;20226;-54
2020/12/22 06:29:31;;;;;;;21.65;15.80;;;;;;;0.78;80.04;101187.66;5082171;28;20059;-54
2020/12/22 06:32:22;;;;;;;20.33;13.60;;;;;;;0.57;80.46;101197.81;5082041;28;20055;-55
2020/12/22 06:34:47;;;;;;;23.02;15.65;;;;;;;0.89;80.20;101192.34;5078634;28;20032;-55
2020/12/22 06:37:13;;;;;;;20.00;14.90;;;;;;;0.79;79.90;101198.75;5082319;28;20032;-53
2020/12/22 06:39:49;;;;;;;19.63;14.98;;;;;;;0.75;79.71;101197.72;5082074;28;20213;-54
2020/12/22 06:42:42;;;;;;;20.42;14.90;;;;;;;0.91;79.08;101198.38;5062408;28;20032;-54
2020/12/22 06:45:35;;;;;;;24.95;14.80;;;;;;;0.86;78.94;101193.09;5061605;28;20049;-55
2020/12/22 06:48:01;;;;;;;20.83;14.40;;;;;;;0.75;79.65;101191.75;5079470;28;20040;-54
2020/12/22 06:50:44;;;;;;;20.63;15.63;;;;;;;0.93;79.52;101191.69;5082131;28;20025;-55
2020/12/22 06:53:41;;;;;;;19.95;15.23;;;;;;;0.96;78.70;101186.72;5081906;28;20028;-54
2020/12/22 06:56:07;;;;;;;23.30;15.95;;;;;;;0.95;78.88;101178.16;5080833;28;20037;-55
2020/12/22 06:58:47;;;;;;;21.17;14.63;;;;;;;0.88;78.52;101172.75;5081746;28;20138;-55
2020/12/22 07:01:33;;;;;;;19.50;14.20;;;;;;;0.72;79.68;101182.28;5082033;28;20032;-55
2020/12/22 07:04:18;;;;;;;21.98;16.02;;;;;;;0.47;80.13;101180.34;5081809;28;20345;-55
2020/12/22 07:06:46;;;;;;;22.42;16.70;;;;;;;0.81;79.44;101172.50;5081842;28;20036;-55
2020/12/22 07:09:18;;;;;;;20.45;15.65;;;;;;;0.09;79.96;101098.03;5081392;28;20086;-55
2020/12/22 07:11:44;;;;;;;22.35;15.57;;;;;;;0.87;78.42;101164.25;5081842;28;20055;-55
2020/12/22 07:14:14;;;;;;;20.95;15.00;;;;;;;0.66;78.57;101166.75;5084222;28;20036;-55
2020/12/22 07:16:53;;;;;;;23.02;15.45;;;;;;;0.39;79.90;101182.56;5074306;28;20033;-54
2020/12/22 07:19:30;;;;;;;22.50;15.90;;;;;;;0.17;79.08;101130.69;5079009;28;20028;-54
2020/12/22 07:22:05;;;;;;;19.73;15.38;;;;;;;0.40;79.48;101165.59;5084979;28;20055;-54
2020/12/22 07:24:34;;;;;;;20.80;14.23;;;;;;;0.00;80.22;101106.16;5077041;28;20217;-54
2020/12/22 07:27:04;;;;;;;20.80;15.50;;;;;;;0.37;80.18;101166.34;5083876;28;20028;-54
2020/12/22 07:29:30;;;;;;;15.68;10.40;;;;;;;0.25;79.03;101163.25;5084161;28;20024;-55
2020/12/22 07:31:55;;;;;;;18.33;13.18;;;;;;;0.16;79.16;101164.59;5085231;28;20029;-54
2020/12/22 07:34:21;;;;;;;17.35;13.80;;;;;;;0.54;78.96;101176.41;5085319;28;20024;-54
2020/12/22 07:36:48;;;;;;;19.02;13.43;;;;;;;0.51;78.98;101170.38;5084842;28;20091;-54
2020/12/22 07:39:23;;;;;;;19.65;13.45;;;;;;;0.54;78.35;101158.56;5078100;28;20028;-53
2020/12/22 07:41:50;;;;;;;21.02;15.07;;;;;;;0.59;77.77;101163.06;5084851;28;20031;-54
2020/12/22 07:44:23;;;;;;;20.80;14.98;;;;;;;0.61;78.38;101168.22;5076793;28;20048;-54
2020/12/22 07:46:54;;;;;;;19.45;15.30;;;;;;;0.67;77.41;101171.91;5071849;28;20104;-53
2020/12/22 07:49:20;;;;;;;19.40;15.27;;;;;;;0.69;77.25;101175.38;5072904;28;20025;-54
2020/12/22 07:51:48;;;;;;;17.90;13.80;;;;;;;0.23;77.92;101119.00;5069121;28;20025;-54
2020/12/22 07:54:16;;;;;;;18.02;14.68;;;;;;;0.46;78.50;101168.44;5080315;28;20040;-55
2020/12/22 07:56:43;;;;;;;17.75;13.95;;;;;;;0.59;78.61;101172.38;5074090;28;20256;-54
2020/12/22 07:59:10;;;;;;;17.20;12.35;;;;;;;0.48;78.42;101170.22;5083032;28;20043;-54
2020/12/22 08:01:43;;;;;;;15.13;11.35;;;;;;;0.54;77.88;101177.25;5069858;28;20032;-54
2020/12/22 08:04:16;;;;;;;13.93;10.98;;;;;;;0.30;79.15;101160.09;5079690;28;20041;-56
2020/12/22 08:06:52;;;;;;;15.20;11.55;;;;;;;0.23;78.33;101130.06;5076906;28;20274;-54
2020/12/22 08:09:22;;;;;;;14.10;10.48;;;;;;;0.47;77.59;101165.94;5078271;28;20084;-54
2020/12/22 08:11:50;;;;;;;14.82;11.38;;;;;;;0.39;77.63;101153.69;5083620;28;20032;-55
2020/12/22 08:14:17;;;;;;;17.60;12.45;;;;;;;0.21;78.49;101124.03;5075823;28;20095;-54
2020/12/22 08:16:43;;;;;;;16.95;11.63;;;;;;;0.27;78.23;101166.72;5083543;28;20020;-54
2020/12/22 08:19:09;;;;;;;15.45;12.07;;;;;;;0.40;77.66;101169.03;5082897;28;20067;-55
2020/12/22 08:21:36;;;;;;;15.93;12.43;;;;;;;-0.05;78.96;101173.81;5083309;28;20017;-55
2020/12/22 08:24:03;;;;;;;16.73;12.55;;;;;;;0.12;79.42;101164.38;5082901;28;20028;-55
2020/12/22 08:26:29;;;;;;;15.93;12.40;;;;;;;0.09;79.05;101166.81;5082673;28;20024;-55
2020/12/22 08:28:55;;;;;;;15.25;12.52;;;;;;;-0.15;79.69;101156.38;5075326;28;20100;-55
2020/12/22 08:31:23;;;;;;;16.88;12.88;;;;;;;-0.27;79.76;101100.66;5083314;28;20282;-55
2020/12/22 08:33:54;;;;;;;15.90;12.90;;;;;;;-0.05;79.30;101150.88;5083092;28;20035;-55
2020/12/22 08:36:22;;;;;;;17.90;13.05;;;;;;;-0.01;79.45;101160.41;5076435;28;20036;-54
2020/12/22 08:38:48;;;;;;;19.00;13.43;;;;;;;0.13;79.40;101155.94;5083486;28;20025;-55
2020/12/22 08:41:16;;;;;;;18.20;13.90;;;;;;;0.09;79.70;101157.47;5083029;28;20246;-55
2020/12/22 08:43:52;;;;;;;19.15;13.57;;;;;;;-0.26;79.70;101088.00;5083085;28;20027;-55
2020/12/22 08:46:20;;;;;;;16.92;13.65;;;;;;;-0.23;79.57;101144.16;5063473;28;20055;-54
2020/12/22 08:48:49;;;;;;;18.88;13.85;;;;;;;0.04;79.59;101138.56;5072207;28;20036;-55
2020/12/22 08:51:25;;;;;;;18.73;12.82;;;;;;;0.17;78.77;101134.88;5083558;28;20028;-55
2020/12/22 08:53:53;;;;;;;17.65;11.85;;;;;;;-0.18;79.07;101134.19;5083519;28;20309;-55
2020/12/22 08:56:24;;;;;;;15.48;11.77;;;;;;;-0.09;79.33;101131.19;5083640;28;20105;-54
2020/12/22 08:58:54;;;;;;;14.27;10.55;;;;;;;-0.24;78.98;101131.38;5083056;28;20029;-54
2020/12/22 09:01:21;;;;;;;13.70;10.45;;;;;;;-0.19;78.98;101133.28;5082287;28;20039;-55
2020/12/22 09:03:52;;;;;;;14.20;10.60;;;;;;;-0.27;79.03;101138.84;5081746;28;20020;-55
2020/12/22 09:06:30;;;;;;;14.93;9.52;;;;;;;-0.45;79.08;101136.31;5081676;28;20035;-55
2020/12/22 09:08:59;;;;;;;12.63;9.70;;;;;;;-0.44;78.80;101107.50;5081534;28;20033;-55
2020/12/22 09:11:24;;;;;;;11.25;9.35;;;;;;;-0.22;78.77;101125.50;5082711;28;20027;-53
2020/12/22 09:14:08;;;;;;;13.20;8.60;;;;;;;-0.29;78.10;101150.63;5083116;28;20024;-55
2020/12/22 09:16:54;;;;;;;11.20;8.32;;;;;;;-0.63;77.25;101060.00;5083048;28;20044;-54
2020/12/22 09:19:40;;;;;;;12.82;8.88;;;;;;;-0.35;77.71;101124.09;5080942;28;20021;-54
2020/12/22 09:22:06;;;;;;;11.00;8.38;;;;;;;-0.54;78.18;101119.81;5080644;28;20032;-53
2020/12/22 09:24:33;;;;;;;9.05;7.88;;;;;;;-0.60;77.94;101105.94;5078189;28;20028;-53
2020/12/22 09:27:10;;;;;;;9.45;7.90;;;;;;;-1.22;78.70;101045.41;5080492;28;20035;-55
2020/12/22 09:29:37;;;;;;;10.70;7.30;;;;;;;-0.87;78.18;101046.22;5082649;28;20028;-54
2020/12/22 09:32:04;;;;;;;11.88;9.00;;;;;;;-0.35;76.94;101110.50;5082824;28;20223;-54
2020/12/22 09:34:32;;;;;;;11.40;9.30;;;;;;;-0.47;76.90;101108.28;5082911;28;20032;-54
2020/12/22 09:37:02;;;;;;;12.20;8.88;;;;;;;-0.29;76.55;101076.81;5082678;28;20024;-54
2020/12/22 09:39:28;;;;;;;12.05;9.95;;;;;;;-0.70;78.86;101102.97;5082398;28;20028;-53
2020/12/22 09:41:55;;;;;;;8.02;6.93;;;;;;;-0.73;77.13;101107.03;5082686;28;20044;-53
2020/12/22 09:44:21;;;;;;;10.48;8.40;;;;;;;-0.70;78.67;101109.72;5082798;28;20220;-53
2020/12/22 09:46:49;;;;;;;12.50;8.20;;;;;;;-0.74;78.31;101100.19;5082477;28;20028;-53
2020/12/22 09:49:15;;;;;;;11.60;8.25;;;;;;;-0.63;78.14;101081.22;5078544;28;20097;-54
2020/12/22 09:51:41;;;;;;;10.55;8.23;;;;;;;-0.54;77.45;101088.44;5082933;28;20032;-54
2020/12/22 09:54:07;;;;;;;8.75;7.65;;;;;;;-0.61;76.26;101094.03;5082592;28;20027;-53
2020/12/22 09:56:32;;;;;;;10.35;7.28;;;;;;;-1.01;77.53;101087.03;5082596;28;20092;-54
2020/12/22 09:58:59;;;;;;;9.35;7.80;;;;;;;-0.95;77.71;101108.53;5082509;28;20021;-54
2020/12/22 10:01:26;;;;;;;11.30;7.95;;;;;;;-1.01;77.99;101118.44;5082437;28;20221;-54
2020/12/22 10:03:52;;;;;;;11.07;8.50;;;;;;;-0.88;77.18;101100.41;5082351;28;20099;-55
2020/12/22 10:06:23;;;;;;;9.68;8.27;;;;;;;-1.00;77.17;101038.78;5082237;28;20021;-54
2020/12/22 10:08:49;;;;;;;9.35;8.13;;;;;;;-0.55;76.57;101097.72;5082298;28;20028;-53
2020/12/22 10:11:16;;;;;;;10.55;8.07;;;;;;;-0.80;77.00;101102.44;5080045;28;20074;-54
2020/12/22 10:13:42;;;;;;;10.20;8.82;;;;;;;-1.12;77.59;101106.88;5082566;28;20028;-52
2020/12/22 10:16:11;;;;;;;10.50;7.72;;;;;;;-0.91;76.79;101102.81;5081234;28;20067;-53
2020/12/22 10:18:37;;;;;;;8.00;6.75;;;;;;;-1.46;77.32;101102.63;5082135;28;20024;-53
2020/12/22 10:21:04;;;;;;;10.77;8.20;;;;;;;-1.42;77.70;101102.88;5082239;28;20071;-53
2020/12/22 10:23:30;;;;;;;9.95;7.90;;;;;;;-1.65;78.97;101081.41;5082349;28;20047;-53
2020/12/22 10:25:56;;;;;;;9.93;7.30;;;;;;;-1.28;76.70;101090.00;5081550;28;20087;-53
2020/12/22 10:28:22;;;;;;;10.27;7.05;;;;;;;-1.72;78.59;101089.50;5075589;28;20025;-55
2020/12/22 10:30:47;;;;;;;11.40;8.10;;;;;;;-1.41;78.34;101085.94;5078017;28;20024;-53
2020/12/22 10:33:13;;;;;;;9.77;7.72;;;;;;;-1.58;77.99;101083.44;5076670;28;20096;-53
2020/12/22 10:35:38;;;;;;;9.50;8.15;;;;;;;-1.61;78.05;101085.84;5078480;28;20191;-54
2020/12/22 10:38:04;;;;;;;8.60;7.18;;;;;;;-1.47;77.85;101078.03;5076982;28;20021;-54
2020/12/22 10:40:29;;;;;;;9.05;7.88;;;;;;;-1.15;77.19;101083.84;5076030;28;20033;-56
2020/12/22 10:42:55;;;;;;;10.77;8.30;;;;;;;-1.29;76.66;101067.91;5072851;28;20040;-53
2020/12/22 10:45:21;;;;;;;9.77;7.72;;;;;;;-0.99;76.76;101076.13;5062167;28;20079;-54
2020/12/22 10:47:46;;;;;;;10.75;8.55;;;;;;;-0.77;77.05;101077.16;5062632;28;20075;-54
2020/12/22 10:50:12;;;;;;;11.07;8.25;;;;;;;-1.15;76.44;101086.38;5080939;28;20186;-53
2020/12/22 10:52:37;;;;;;;9.98;8.77;;;;;;;-1.16;76.72;101079.53;5084443;28;20194;-53
2020/12/22 10:55:04;;;;;;;12.02;8.70;;;;;;;-1.26;77.35;101088.38;5086036;28;20028;-53
2020/12/22 10:57:30;;;;;;;11.25;8.98;;;;;;;-1.04;76.76;101075.06;5084895;28;20028;-53
2020/12/22 10:59:55;;;;;;;10.90;8.80;;;;;;;-1.02;76.95;101090.41;5085759;28;20273;-54
2020/12/22 11:02:22;;;;;;;13.10;8.35;;;;;;;-1.30;75.38;101087.34;5085784;28;20028;-53
2020/12/22 11:04:47;;;;;;;10.63;8.73;;;;;;;-1.16;76.67;101084.63;5085207;28;20024;-53
2020/12/22 11:07:22;;;;;;;11.25;8.73;;;;;;;-1.11;76.93;101076.44;5078299;28;20036;-52
2020/12/22 11:09:47;;;;;;;12.43;8.27;;;;;;;-1.56;77.43;101078.44;5084785;28;20036;-53
2020/12/22 11:12:13;;;;;;;12.88;7.63;;;;;;;-1.89;78.60;101075.06;5080667;28;20036;-54
2020/12/22 11:14:38;;;;;;;9.73;8.13;;;;;;;-1.56;77.27;101071.69;5078125;28;20062;-53
2020/12/22 11:17:04;;;;;;;9.30;8.25;;;;;;;-1.20;77.10;101075.09;5082096;28;20104;-54
2020/12/22 11:19:29;;;;;;;11.57;8.57;;;;;;;-1.18;76.50;101076.03;5083311;28;20024;-53
2020/12/22 11:21:55;;;;;;;10.48;8.15;;;;;;;-1.09;77.15;101077.38;5076327;28;20025;-54